Azara, Argentina
Current Conditions -  °F | °C
As of 1:00 PM on Thursday 30 Oct 2014 (Local Time) from SARP Reporting Station
Overcast Overcast  
Wind Chill: 66°   Ceiling: 6000
Heat Index: 66°   Visibility: 6mi
Dew Point: 64°   Wind: 14mph
Humidity: 94%   Direction: 140°SE
Pressure: 29.85"   Gusts: NA
Location:  28.07°S, 55.68°W
Report Text: SARP 301600Z 14012KT 9999 SCT018 OVC06019/18 Q1011 RERA
Loading
Personal Weather Stations






























Interactive Weather Map
Tropical Storm Tracking
New forecast layout! Learn more

10-Day Weather Forecast

Advertisements
Track Severe Weather on mobile